Blairsville, Indiana
Current Conditions -  °F | °C
As of 3:54 PM on Friday 19 Dec 2014 (Local Time) from KEVV Reporting Station
Clear Clear  
Wind Chill: 31°   Ceiling: Unl
Heat Index: 36°   Visibility: 10mi
Dew Point: 25°   Wind: 6mph
Humidity: 64%   Direction: 10°N
Pressure: 30.3"   Gusts: NA
Location:  38.0787°N, 87.7717°W
Report Text: KEVV 192154Z 01005KT 10SM CLR 02/M04 A3030 RMK AO2 SLP263 T00221039
Loading
Personal Weather Stations






























Interactive Weather Map New forecast layout! Learn more

10-Day Weather Forecast

Advertisements
Track Severe Weather on mobile